RYR63WW EPKK-EIDW
Flight info
| Callsign | RYR63WW |
|---|---|
| Flight time | 2h 32m |
| Altitude | 36000 |
| Route | OMFOL DCT DINOV DCT NAROX DCT GOBAX DCT PIROT DCT RAVLO Y70 OTBED L60 PENIL UL28 LELDO M145 BAGSO BAGSO4L |
| Aircraft | B738/M-SDE2E3FGHIRWXY/LB1 |
Departure
| Time | 2026-04-30 18:16 |
|---|---|
| Airport | Kraków John Paul II International Airport (EPKK) |
Arrival
| Time | 2026-04-30 20:48 |
|---|---|
| Airport | Dublin Airport (EIDW) |
| Time | Latitude | Longitude | Altitude | Speed | Heading |
|---|---|---|---|---|---|
| 2026-04-30 17:57 | 50.07592 | 19.80231 | 799 ft | 0 kts | 347° |
| 2026-04-30 18:13 | 50.07593 | 19.80231 | 799 ft | 1 kts | 348° |
| 2026-04-30 18:13 | 50.07658 | 19.80315 | 799 ft | 7 kts | 78° |
| 2026-04-30 18:14 | 50.07761 | 19.80365 | 799 ft | 10 kts | 347° |
| 2026-04-30 18:15 | 50.07965 | 19.80295 | 799 ft | 11 kts | 348° |
| 2026-04-30 18:15 | 50.07955 | 19.79787 | 799 ft | 68 kts | 258° |
| 2026-04-30 18:16 | 50.07564 | 19.77062 | 1021 ft | 169 kts | 259° |
| 2026-04-30 18:16 | 50.07068 | 19.73458 | 2534 ft | 181 kts | 261° |
| 2026-04-30 18:17 | 50.06784 | 19.71363 | 2844 ft | 212 kts | 261° |
| 2026-04-30 18:17 | 50.06453 | 19.68987 | 3146 ft | 234 kts | 260° |
| 2026-04-30 18:17 | 50.06829 | 19.63865 | 4147 ft | 256 kts | 293° |
| 2026-04-30 18:18 | 50.07461 | 19.61252 | 5066 ft | 258 kts | 292° |
| 2026-04-30 18:18 | 50.08080 | 19.58629 | 6019 ft | 260 kts | 292° |
| 2026-04-30 18:18 | 50.08700 | 19.55953 | 6874 ft | 265 kts | 292° |
| 2026-04-30 18:18 | 50.09325 | 19.53210 | 7601 ft | 273 kts | 292° |
| 2026-04-30 18:19 | 50.09959 | 19.50391 | 8440 ft | 277 kts | 293° |
| 2026-04-30 18:19 | 50.10594 | 19.47531 | 9271 ft | 282 kts | 293° |
| 2026-04-30 18:19 | 50.11237 | 19.44616 | 10080 ft | 287 kts | 293° |
| 2026-04-30 18:19 | 50.11889 | 19.41639 | 10768 ft | 296 kts | 294° |
| 2026-04-30 18:20 | 50.12585 | 19.38472 | 10967 ft | 322 kts | 293° |
| 2026-04-30 18:20 | 50.13329 | 19.35065 | 11306 ft | 340 kts | 293° |
| 2026-04-30 18:20 | 50.14092 | 19.31536 | 11942 ft | 347 kts | 293° |
| 2026-04-30 18:20 | 50.14863 | 19.27945 | 12706 ft | 351 kts | 294° |
| 2026-04-30 18:21 | 50.15642 | 19.24307 | 13442 ft | 356 kts | 294° |
| 2026-04-30 18:21 | 50.16431 | 19.20615 | 14170 ft | 361 kts | 294° |
| 2026-04-30 18:21 | 50.17230 | 19.16875 | 14836 ft | 365 kts | 294° |
| 2026-04-30 18:21 | 50.18035 | 19.13095 | 15516 ft | 369 kts | 294° |
| 2026-04-30 18:22 | 50.18846 | 19.09283 | 16199 ft | 372 kts | 295° |
| 2026-04-30 18:22 | 50.20493 | 19.01528 | 17549 ft | 380 kts | 295° |
| 2026-04-30 18:22 | 50.21326 | 18.97594 | 18219 ft | 383 kts | 295° |
| 2026-04-30 18:23 | 50.22165 | 18.93624 | 18841 ft | 388 kts | 295° |
| 2026-04-30 18:23 | 50.23013 | 18.89604 | 19393 ft | 392 kts | 295° |
| 2026-04-30 18:23 | 50.23868 | 18.85547 | 19944 ft | 396 kts | 295° |
| 2026-04-30 18:23 | 50.24732 | 18.81435 | 20480 ft | 400 kts | 295° |
| 2026-04-30 18:24 | 50.26480 | 18.73090 | 21548 ft | 408 kts | 296° |
| 2026-04-30 18:24 | 50.27364 | 18.68856 | 22045 ft | 412 kts | 296° |
| 2026-04-30 18:24 | 50.28256 | 18.64576 | 22569 ft | 416 kts | 296° |
| 2026-04-30 18:25 | 50.29155 | 18.60253 | 23073 ft | 420 kts | 296° |
| 2026-04-30 18:25 | 50.30974 | 18.51477 | 24056 ft | 428 kts | 296° |
| 2026-04-30 18:25 | 50.31892 | 18.47031 | 24461 ft | 431 kts | 297° |
| 2026-04-30 18:26 | 50.33731 | 18.38089 | 25269 ft | 438 kts | 297° |
| 2026-04-30 18:26 | 50.34664 | 18.33540 | 25658 ft | 441 kts | 297° |
| 2026-04-30 18:26 | 50.35603 | 18.28950 | 26058 ft | 444 kts | 297° |
| 2026-04-30 18:27 | 50.37492 | 18.19678 | 26842 ft | 449 kts | 297° |
| 2026-04-30 18:27 | 50.38443 | 18.14998 | 27210 ft | 452 kts | 297° |
| 2026-04-30 18:28 | 50.40362 | 18.05530 | 27899 ft | 459 kts | 297° |
| 2026-04-30 18:28 | 50.41327 | 18.00744 | 28250 ft | 462 kts | 297° |
| 2026-04-30 18:28 | 50.43270 | 17.91071 | 28929 ft | 468 kts | 297° |
| 2026-04-30 18:29 | 50.44247 | 17.86193 | 29253 ft | 471 kts | 297° |
| 2026-04-30 18:29 | 50.47785 | 17.71876 | 30118 ft | 468 kts | 306° |
| 2026-04-30 18:30 | 50.50090 | 17.64079 | 30615 ft | 471 kts | 306° |
| 2026-04-30 18:30 | 50.52796 | 17.54794 | 31424 ft | 468 kts | 305° |
| 2026-04-30 18:31 | 50.54141 | 17.50080 | 31847 ft | 466 kts | 305° |
| 2026-04-30 18:31 | 50.56772 | 17.40766 | 32482 ft | 466 kts | 304° |
| 2026-04-30 18:32 | 50.59378 | 17.31467 | 33232 ft | 463 kts | 304° |
| 2026-04-30 18:32 | 50.60673 | 17.26833 | 33586 ft | 463 kts | 304° |
| 2026-04-30 18:32 | 50.63256 | 17.17571 | 34273 ft | 461 kts | 304° |
| 2026-04-30 18:33 | 50.64542 | 17.12946 | 34589 ft | 460 kts | 304° |
| 2026-04-30 18:33 | 50.67095 | 17.03737 | 35179 ft | 457 kts | 303° |
| 2026-04-30 18:33 | 50.68362 | 16.99153 | 35480 ft | 454 kts | 303° |
| 2026-04-30 18:34 | 50.69617 | 16.94603 | 35835 ft | 451 kts | 303° |
| 2026-04-30 18:34 | 50.72110 | 16.85545 | 36376 ft | 450 kts | 303° |
| 2026-04-30 18:35 | 50.74616 | 16.76428 | 36420 ft | 454 kts | 302° |
| 2026-04-30 18:35 | 50.77114 | 16.67275 | 36405 ft | 451 kts | 302° |
| 2026-04-30 18:36 | 50.80794 | 16.53711 | 36412 ft | 445 kts | 302° |
| 2026-04-30 18:37 | 50.84442 | 16.40217 | 36422 ft | 445 kts | 302° |
| 2026-04-30 18:37 | 50.86867 | 16.31203 | 36424 ft | 445 kts | 302° |
| 2026-04-30 18:38 | 50.89287 | 16.22163 | 36420 ft | 446 kts | 302° |
| 2026-04-30 18:38 | 50.91688 | 16.13164 | 36427 ft | 446 kts | 302° |
| 2026-04-30 18:39 | 50.94094 | 16.04075 | 36418 ft | 448 kts | 301° |
| 2026-04-30 18:39 | 50.96471 | 15.94922 | 36426 ft | 450 kts | 301° |
| 2026-04-30 18:40 | 50.98844 | 15.85729 | 36427 ft | 451 kts | 301° |
| 2026-04-30 18:40 | 51.01219 | 15.76508 | 36388 ft | 452 kts | 300° |
| 2026-04-30 18:41 | 51.03592 | 15.67268 | 36411 ft | 452 kts | 300° |
| 2026-04-30 18:41 | 51.05954 | 15.58029 | 36425 ft | 451 kts | 300° |
| 2026-04-30 18:42 | 51.08310 | 15.48779 | 36433 ft | 451 kts | 300° |
| 2026-04-30 18:42 | 51.11829 | 15.34892 | 36420 ft | 451 kts | 300° |
| 2026-04-30 18:45 | 51.23408 | 14.83229 | 36424 ft | 455 kts | 291° |
| 2026-04-30 18:46 | 51.24976 | 14.73450 | 36432 ft | 454 kts | 291° |
| 2026-04-30 18:46 | 51.26577 | 14.63697 | 36425 ft | 454 kts | 292° |
| 2026-04-30 18:47 | 51.28189 | 14.53954 | 36432 ft | 454 kts | 292° |
| 2026-04-30 18:47 | 51.29786 | 14.44266 | 36415 ft | 454 kts | 291° |
| 2026-04-30 18:48 | 51.31382 | 14.34531 | 36418 ft | 453 kts | 291° |
| 2026-04-30 18:48 | 51.32968 | 14.24790 | 36429 ft | 453 kts | 291° |
| 2026-04-30 18:49 | 51.34545 | 14.15047 | 36430 ft | 453 kts | 291° |
| 2026-04-30 18:49 | 51.36114 | 14.05295 | 36433 ft | 453 kts | 291° |
| 2026-04-30 18:50 | 51.37675 | 13.95536 | 36432 ft | 453 kts | 291° |
| 2026-04-30 18:50 | 51.39228 | 13.85771 | 36432 ft | 453 kts | 291° |
| 2026-04-30 18:51 | 51.40774 | 13.75989 | 36428 ft | 453 kts | 291° |
| 2026-04-30 18:51 | 51.42311 | 13.66210 | 36432 ft | 453 kts | 291° |
| 2026-04-30 18:52 | 51.43841 | 13.56414 | 36428 ft | 453 kts | 291° |
| 2026-04-30 18:52 | 51.45361 | 13.46622 | 36428 ft | 452 kts | 290° |
| 2026-04-30 18:53 | 51.46871 | 13.36837 | 36429 ft | 452 kts | 290° |
| 2026-04-30 18:53 | 51.48372 | 13.27055 | 36434 ft | 452 kts | 290° |
| 2026-04-30 18:54 | 51.49864 | 13.17269 | 36433 ft | 451 kts | 290° |
| 2026-04-30 18:54 | 51.51348 | 13.07475 | 36404 ft | 451 kts | 290° |
| 2026-04-30 18:55 | 51.52820 | 12.97695 | 36427 ft | 450 kts | 290° |
| 2026-04-30 18:55 | 51.55012 | 12.83040 | 36435 ft | 449 kts | 290° |
| 2026-04-30 18:56 | 51.57232 | 12.68420 | 36432 ft | 448 kts | 290° |
| 2026-04-30 18:57 | 51.59506 | 12.53860 | 36427 ft | 447 kts | 290° |
| 2026-04-30 18:57 | 51.61002 | 12.44164 | 36440 ft | 446 kts | 290° |
| 2026-04-30 18:58 | 51.63222 | 12.29625 | 36434 ft | 446 kts | 289° |
| 2026-04-30 18:59 | 51.65421 | 12.15082 | 36411 ft | 446 kts | 289° |
| 2026-04-30 19:00 | 51.68306 | 11.95779 | 36436 ft | 444 kts | 289° |
| 2026-04-30 19:01 | 51.71171 | 11.76409 | 36436 ft | 444 kts | 288° |
| 2026-04-30 19:02 | 51.73296 | 11.61868 | 36428 ft | 444 kts | 288° |
| 2026-04-30 19:03 | 51.76101 | 11.42468 | 36429 ft | 444 kts | 288° |
| 2026-04-30 19:04 | 51.78874 | 11.23044 | 36417 ft | 444 kts | 287° |
| 2026-04-30 19:05 | 51.81611 | 11.03619 | 36443 ft | 443 kts | 287° |
| 2026-04-30 19:06 | 51.84314 | 10.84187 | 36455 ft | 443 kts | 287° |
| 2026-04-30 19:06 | 51.86320 | 10.69598 | 36447 ft | 442 kts | 286° |
| 2026-04-30 19:07 | 51.88305 | 10.55018 | 36450 ft | 442 kts | 286° |
| 2026-04-30 19:08 | 51.90917 | 10.35615 | 36432 ft | 442 kts | 285° |
| 2026-04-30 19:09 | 51.92858 | 10.21019 | 36435 ft | 442 kts | 285° |
| 2026-04-30 19:09 | 51.94140 | 10.11295 | 36438 ft | 441 kts | 285° |
| 2026-04-30 19:10 | 51.96679 | 9.91843 | 36437 ft | 441 kts | 285° |
| 2026-04-30 19:11 | 51.98563 | 9.77241 | 36426 ft | 441 kts | 284° |
| 2026-04-30 19:12 | 51.99806 | 9.67513 | 36429 ft | 440 kts | 284° |
| 2026-04-30 19:12 | 52.01043 | 9.57773 | 36435 ft | 440 kts | 284° |
| 2026-04-30 19:13 | 52.03490 | 9.38287 | 36420 ft | 441 kts | 284° |
| 2026-04-30 19:14 | 52.04705 | 9.28526 | 36414 ft | 441 kts | 284° |
| 2026-04-30 19:14 | 52.06030 | 9.18818 | 36408 ft | 440 kts | 287° |
| 2026-04-30 19:15 | 52.07665 | 9.09245 | 36404 ft | 439 kts | 289° |
| 2026-04-30 19:15 | 52.09884 | 8.96520 | 36409 ft | 440 kts | 288° |
| 2026-04-30 19:16 | 52.11513 | 8.86928 | 36390 ft | 440 kts | 288° |
| 2026-04-30 19:17 | 52.13914 | 8.72523 | 36408 ft | 440 kts | 287° |
| 2026-04-30 19:17 | 52.16295 | 8.58089 | 36397 ft | 440 kts | 287° |
| 2026-04-30 19:18 | 52.18657 | 8.43659 | 36395 ft | 440 kts | 287° |
| 2026-04-30 19:19 | 52.20223 | 8.34024 | 36389 ft | 439 kts | 287° |
| 2026-04-30 19:19 | 52.22554 | 8.19581 | 36390 ft | 439 kts | 287° |
| 2026-04-30 19:20 | 52.24099 | 8.09936 | 36384 ft | 439 kts | 287° |
| 2026-04-30 19:21 | 52.26391 | 7.95525 | 36382 ft | 439 kts | 286° |
| 2026-04-30 19:22 | 52.29429 | 7.76230 | 36375 ft | 438 kts | 286° |
| 2026-04-30 19:23 | 52.33919 | 7.47287 | 36379 ft | 438 kts | 285° |
| 2026-04-30 19:24 | 52.36135 | 7.32814 | 36374 ft | 437 kts | 285° |
| 2026-04-30 19:25 | 52.39787 | 7.08664 | 36371 ft | 438 kts | 285° |
| 2026-04-30 19:26 | 52.42680 | 6.89276 | 36365 ft | 439 kts | 284° |
| 2026-04-30 19:27 | 52.44834 | 6.74679 | 36365 ft | 440 kts | 284° |
| 2026-04-30 19:28 | 52.46975 | 6.60031 | 36360 ft | 441 kts | 285° |
| 2026-04-30 19:29 | 52.49809 | 6.40436 | 36349 ft | 442 kts | 284° |
| 2026-04-30 19:30 | 52.52618 | 6.20768 | 36349 ft | 443 kts | 284° |
| 2026-04-30 19:31 | 52.55394 | 6.01055 | 36341 ft | 443 kts | 284° |
| 2026-04-30 19:31 | 52.57459 | 5.86233 | 36341 ft | 444 kts | 283° |
| 2026-04-30 19:32 | 52.58826 | 5.76342 | 36324 ft | 444 kts | 283° |
| 2026-04-30 19:32 | 52.60187 | 5.66433 | 36334 ft | 444 kts | 283° |
| 2026-04-30 19:33 | 52.61539 | 5.56510 | 36340 ft | 445 kts | 283° |
| 2026-04-30 19:33 | 52.62883 | 5.46581 | 36333 ft | 445 kts | 282° |
| 2026-04-30 19:34 | 52.64212 | 5.36698 | 36334 ft | 445 kts | 282° |
| 2026-04-30 19:35 | 52.66203 | 5.21765 | 36343 ft | 445 kts | 282° |
| 2026-04-30 19:35 | 52.67520 | 5.11806 | 36344 ft | 444 kts | 282° |
| 2026-04-30 19:36 | 52.68827 | 5.01848 | 36342 ft | 444 kts | 282° |
| 2026-04-30 19:36 | 52.70768 | 4.86935 | 36323 ft | 443 kts | 281° |
| 2026-04-30 19:37 | 52.72050 | 4.76996 | 36326 ft | 443 kts | 281° |
| 2026-04-30 19:37 | 52.73324 | 4.67046 | 36336 ft | 443 kts | 281° |
| 2026-04-30 19:38 | 52.74589 | 4.57104 | 36329 ft | 443 kts | 281° |
| 2026-04-30 19:38 | 52.75846 | 4.47146 | 36322 ft | 443 kts | 281° |
| 2026-04-30 19:39 | 52.77096 | 4.37178 | 36331 ft | 443 kts | 280° |
| 2026-04-30 19:39 | 52.78337 | 4.27194 | 36325 ft | 444 kts | 281° |
| 2026-04-30 19:40 | 52.79572 | 4.17199 | 36327 ft | 444 kts | 280° |
| 2026-04-30 19:40 | 52.80799 | 4.07189 | 36335 ft | 444 kts | 281° |
| 2026-04-30 19:41 | 52.82017 | 3.97175 | 36323 ft | 444 kts | 280° |
| 2026-04-30 19:41 | 52.83230 | 3.87157 | 36320 ft | 444 kts | 279° |
| 2026-04-30 19:42 | 52.84431 | 3.77134 | 36319 ft | 444 kts | 279° |
| 2026-04-30 19:42 | 52.85614 | 3.67188 | 36324 ft | 443 kts | 280° |
| 2026-04-30 19:43 | 52.86803 | 3.57118 | 36314 ft | 443 kts | 279° |
| 2026-04-30 19:44 | 52.88551 | 3.42173 | 36287 ft | 443 kts | 279° |
| 2026-04-30 19:44 | 52.89708 | 3.32177 | 36284 ft | 442 kts | 278° |
| 2026-04-30 19:45 | 52.90860 | 3.22170 | 36281 ft | 442 kts | 278° |
| 2026-04-30 19:45 | 52.92011 | 3.12175 | 36282 ft | 442 kts | 280° |
| 2026-04-30 19:46 | 52.93313 | 3.02222 | 36306 ft | 442 kts | 281° |
| 2026-04-30 19:46 | 52.94653 | 2.92273 | 36304 ft | 442 kts | 280° |
| 2026-04-30 19:47 | 52.95970 | 2.82317 | 36304 ft | 442 kts | 280° |
| 2026-04-30 19:47 | 52.97266 | 2.72345 | 36301 ft | 442 kts | 280° |
| 2026-04-30 19:48 | 52.98547 | 2.62374 | 36299 ft | 442 kts | 279° |
| 2026-04-30 19:48 | 52.99823 | 2.52391 | 36310 ft | 442 kts | 279° |
| 2026-04-30 19:49 | 53.01088 | 2.42416 | 36289 ft | 442 kts | 279° |
| 2026-04-30 19:49 | 53.02972 | 2.27439 | 36289 ft | 441 kts | 279° |
| 2026-04-30 19:50 | 53.04217 | 2.17454 | 36291 ft | 441 kts | 279° |
| 2026-04-30 19:50 | 53.05452 | 2.07472 | 36288 ft | 441 kts | 279° |
| 2026-04-30 19:51 | 53.06681 | 1.97485 | 36298 ft | 441 kts | 279° |
| 2026-04-30 19:51 | 53.07901 | 1.87502 | 36289 ft | 441 kts | 279° |
| 2026-04-30 19:52 | 53.09113 | 1.77516 | 36288 ft | 440 kts | 279° |
| 2026-04-30 19:52 | 53.10316 | 1.67532 | 36288 ft | 440 kts | 279° |
| 2026-04-30 19:53 | 53.11510 | 1.57547 | 36283 ft | 440 kts | 279° |
| 2026-04-30 19:53 | 53.12686 | 1.47637 | 36289 ft | 440 kts | 278° |
| 2026-04-30 19:54 | 53.13870 | 1.37581 | 36280 ft | 440 kts | 278° |
| 2026-04-30 19:54 | 53.15030 | 1.27658 | 36284 ft | 439 kts | 278° |
| 2026-04-30 19:55 | 53.16189 | 1.17661 | 36277 ft | 439 kts | 278° |
| 2026-04-30 19:55 | 53.17339 | 1.07666 | 36277 ft | 439 kts | 278° |
| 2026-04-30 19:56 | 53.18481 | 0.97663 | 36283 ft | 440 kts | 278° |
| 2026-04-30 19:56 | 53.19617 | 0.87637 | 36275 ft | 440 kts | 277° |
| 2026-04-30 19:57 | 53.20744 | 0.77608 | 36274 ft | 440 kts | 277° |
| 2026-04-30 19:57 | 53.21865 | 0.67561 | 36273 ft | 441 kts | 277° |
| 2026-04-30 19:58 | 53.22978 | 0.57497 | 36269 ft | 441 kts | 277° |
| 2026-04-30 19:58 | 53.24085 | 0.47421 | 36279 ft | 441 kts | 277° |
| 2026-04-30 19:59 | 53.25182 | 0.37329 | 36268 ft | 442 kts | 277° |
| 2026-04-30 20:00 | 53.26619 | 0.23881 | 36271 ft | 442 kts | 277° |
| 2026-04-30 20:00 | 53.27870 | 0.12064 | 36269 ft | 442 kts | 277° |
| 2026-04-30 20:01 | 53.29458 | -0.03100 | 36266 ft | 442 kts | 276° |
| 2026-04-30 20:01 | 53.30503 | -0.13223 | 36272 ft | 442 kts | 276° |
| 2026-04-30 20:02 | 53.32052 | -0.28360 | 36247 ft | 442 kts | 276° |
| 2026-04-30 20:03 | 53.33591 | -0.43574 | 36244 ft | 442 kts | 276° |
| 2026-04-30 20:03 | 53.34613 | -0.53716 | 36245 ft | 442 kts | 276° |
| 2026-04-30 20:04 | 53.35465 | -0.62218 | 36244 ft | 442 kts | 276° |
| 2026-04-30 20:05 | 53.36954 | -0.77440 | 36246 ft | 442 kts | 275° |
| 2026-04-30 20:05 | 53.38418 | -0.92675 | 36246 ft | 442 kts | 275° |
| 2026-04-30 20:06 | 53.39420 | -1.02829 | 36259 ft | 442 kts | 276° |
| 2026-04-30 20:06 | 53.40405 | -1.12990 | 36250 ft | 442 kts | 275° |
| 2026-04-30 20:07 | 53.41366 | -1.23161 | 36249 ft | 442 kts | 275° |
| 2026-04-30 20:08 | 53.42776 | -1.38442 | 36244 ft | 442 kts | 275° |
| 2026-04-30 20:08 | 53.43731 | -1.48620 | 36241 ft | 442 kts | 275° |
| 2026-04-30 20:09 | 53.44670 | -1.58803 | 36244 ft | 442 kts | 275° |
| 2026-04-30 20:09 | 53.46048 | -1.74016 | 36242 ft | 441 kts | 275° |
| 2026-04-30 20:10 | 53.47404 | -1.89285 | 36231 ft | 440 kts | 275° |
| 2026-04-30 20:11 | 53.48718 | -2.04525 | 36222 ft | 439 kts | 274° |
| 2026-04-30 20:11 | 53.49587 | -2.14674 | 36215 ft | 439 kts | 274° |
| 2026-04-30 20:12 | 53.50879 | -2.29913 | 36203 ft | 439 kts | 274° |
| 2026-04-30 20:13 | 53.51732 | -2.40066 | 36211 ft | 439 kts | 274° |
| 2026-04-30 20:13 | 53.52577 | -2.50226 | 36196 ft | 439 kts | 274° |
| 2026-04-30 20:14 | 53.53412 | -2.60373 | 36225 ft | 439 kts | 274° |
| 2026-04-30 20:14 | 53.54239 | -2.70539 | 36197 ft | 439 kts | 274° |
| 2026-04-30 20:15 | 53.55056 | -2.80694 | 36188 ft | 438 kts | 274° |
| 2026-04-30 20:15 | 53.55864 | -2.90851 | 36181 ft | 438 kts | 274° |
| 2026-04-30 20:16 | 53.56663 | -3.00991 | 36182 ft | 437 kts | 274° |
| 2026-04-30 20:16 | 53.57449 | -3.11075 | 35800 ft | 430 kts | 274° |
| 2026-04-30 20:16 | 53.57833 | -3.16025 | 35440 ft | 424 kts | 274° |
| 2026-04-30 20:17 | 53.58209 | -3.20922 | 35064 ft | 421 kts | 274° |
| 2026-04-30 20:17 | 53.58580 | -3.25782 | 34696 ft | 417 kts | 274° |
| 2026-04-30 20:17 | 53.58946 | -3.30604 | 34319 ft | 414 kts | 274° |
| 2026-04-30 20:17 | 53.59307 | -3.35390 | 33900 ft | 411 kts | 274° |
| 2026-04-30 20:18 | 53.59664 | -3.40141 | 33490 ft | 408 kts | 274° |
| 2026-04-30 20:18 | 53.60016 | -3.44855 | 33100 ft | 404 kts | 274° |
| 2026-04-30 20:18 | 53.60363 | -3.49525 | 32735 ft | 400 kts | 274° |
| 2026-04-30 20:18 | 53.60706 | -3.54156 | 32357 ft | 397 kts | 274° |
| 2026-04-30 20:19 | 53.61044 | -3.58747 | 31990 ft | 394 kts | 273° |
| 2026-04-30 20:19 | 53.61378 | -3.63308 | 31655 ft | 391 kts | 273° |
| 2026-04-30 20:19 | 53.61905 | -3.67800 | 31283 ft | 393 kts | 283° |
| 2026-04-30 20:19 | 53.62864 | -3.72116 | 30949 ft | 393 kts | 288° |
| 2026-04-30 20:20 | 53.63913 | -3.76344 | 30591 ft | 391 kts | 289° |
| 2026-04-30 20:20 | 53.64961 | -3.80559 | 30243 ft | 388 kts | 288° |
| 2026-04-30 20:20 | 53.65987 | -3.84755 | 29841 ft | 386 kts | 288° |
| 2026-04-30 20:20 | 53.66990 | -3.88935 | 29453 ft | 383 kts | 288° |
| 2026-04-30 20:21 | 53.67976 | -3.93086 | 29107 ft | 379 kts | 288° |
| 2026-04-30 20:21 | 53.68953 | -3.97188 | 28709 ft | 377 kts | 288° |
| 2026-04-30 20:21 | 53.69943 | -4.01271 | 28323 ft | 374 kts | 288° |
| 2026-04-30 20:21 | 53.70917 | -4.05272 | 27977 ft | 372 kts | 287° |
| 2026-04-30 20:22 | 53.71684 | -4.09445 | 27590 ft | 364 kts | 276° |
| 2026-04-30 20:22 | 53.71972 | -4.13631 | 27243 ft | 356 kts | 268° |
| 2026-04-30 20:22 | 53.72110 | -4.17789 | 26908 ft | 354 kts | 267° |
| 2026-04-30 20:22 | 53.72232 | -4.21872 | 26558 ft | 352 kts | 267° |
| 2026-04-30 20:23 | 53.72362 | -4.25986 | 26213 ft | 350 kts | 267° |
| 2026-04-30 20:23 | 53.72498 | -4.30082 | 25871 ft | 349 kts | 267° |
| 2026-04-30 20:23 | 53.72643 | -4.34214 | 25528 ft | 347 kts | 267° |
| 2026-04-30 20:23 | 53.72786 | -4.38271 | 25187 ft | 345 kts | 267° |
| 2026-04-30 20:24 | 53.72926 | -4.42257 | 24858 ft | 344 kts | 267° |
| 2026-04-30 20:24 | 53.73067 | -4.46283 | 24508 ft | 343 kts | 267° |
| 2026-04-30 20:24 | 53.73206 | -4.50310 | 24151 ft | 343 kts | 267° |
| 2026-04-30 20:24 | 53.73344 | -4.54324 | 23812 ft | 343 kts | 266° |
| 2026-04-30 20:25 | 53.73616 | -4.62339 | 23056 ft | 340 kts | 266° |
| 2026-04-30 20:25 | 53.73750 | -4.66320 | 22706 ft | 338 kts | 266° |
| 2026-04-30 20:26 | 53.74011 | -4.74202 | 22051 ft | 334 kts | 266° |
| 2026-04-30 20:26 | 53.74263 | -4.81995 | 21387 ft | 330 kts | 266° |
| 2026-04-30 20:26 | 53.74389 | -4.85858 | 21057 ft | 329 kts | 266° |
| 2026-04-30 20:27 | 53.74644 | -4.93544 | 20397 ft | 326 kts | 266° |
| 2026-04-30 20:27 | 53.74894 | -5.01160 | 19766 ft | 323 kts | 266° |
| 2026-04-30 20:28 | 53.75135 | -5.08712 | 19148 ft | 321 kts | 266° |
| 2026-04-30 20:28 | 53.74931 | -5.16076 | 18514 ft | 306 kts | 246° |
| 2026-04-30 20:29 | 53.73577 | -5.22797 | 17867 ft | 300 kts | 244° |
| 2026-04-30 20:30 | 53.71527 | -5.32712 | 16903 ft | 296 kts | 244° |
| 2026-04-30 20:30 | 53.69546 | -5.42429 | 16002 ft | 291 kts | 244° |
| 2026-04-30 20:31 | 53.67650 | -5.52077 | 15111 ft | 290 kts | 250° |
| 2026-04-30 20:32 | 53.66407 | -5.62025 | 14218 ft | 288 kts | 251° |
| 2026-04-30 20:32 | 53.65566 | -5.68596 | 13600 ft | 286 kts | 251° |
| 2026-04-30 20:33 | 53.65138 | -5.71856 | 13294 ft | 284 kts | 251° |
| 2026-04-30 20:33 | 53.64283 | -5.78320 | 12691 ft | 281 kts | 251° |
| 2026-04-30 20:33 | 53.63858 | -5.81525 | 12399 ft | 279 kts | 251° |
| 2026-04-30 20:34 | 53.63012 | -5.87878 | 11817 ft | 277 kts | 251° |
| 2026-04-30 20:34 | 53.62171 | -5.94165 | 11250 ft | 274 kts | 251° |
| 2026-04-30 20:35 | 53.61753 | -5.97287 | 10962 ft | 273 kts | 251° |
| 2026-04-30 20:35 | 53.61340 | -6.00358 | 10683 ft | 272 kts | 251° |
| 2026-04-30 20:35 | 53.60510 | -6.06531 | 10224 ft | 266 kts | 251° |
| 2026-04-30 20:36 | 53.60106 | -6.09527 | 10033 ft | 262 kts | 251° |
| 2026-04-30 20:36 | 53.59701 | -6.12512 | 9740 ft | 261 kts | 251° |
| 2026-04-30 20:36 | 53.58896 | -6.18429 | 9184 ft | 258 kts | 251° |
| 2026-04-30 20:37 | 53.58496 | -6.21365 | 8916 ft | 257 kts | 251° |
| 2026-04-30 20:37 | 53.58097 | -6.24288 | 8656 ft | 256 kts | 251° |
| 2026-04-30 20:37 | 53.57708 | -6.27193 | 8454 ft | 253 kts | 255° |
| 2026-04-30 20:37 | 53.57874 | -6.30220 | 8191 ft | 276 kts | 291° |
| 2026-04-30 20:38 | 53.58958 | -6.32977 | 8210 ft | 288 kts | 302° |
| 2026-04-30 20:38 | 53.60136 | -6.35741 | 8144 ft | 292 kts | 302° |
| 2026-04-30 20:38 | 53.61306 | -6.38528 | 8113 ft | 290 kts | 301° |
| 2026-04-30 20:39 | 53.63599 | -6.44101 | 8111 ft | 290 kts | 301° |
| 2026-04-30 20:39 | 53.64502 | -6.47141 | 7556 ft | 294 kts | 274° |
| 2026-04-30 20:39 | 53.64317 | -6.50429 | 7220 ft | 278 kts | 241° |
| 2026-04-30 20:40 | 53.62002 | -6.55287 | 6654 ft | 262 kts | 216° |
| 2026-04-30 20:40 | 53.60624 | -6.57283 | 6366 ft | 261 kts | 216° |
| 2026-04-30 20:40 | 53.59255 | -6.59274 | 6073 ft | 259 kts | 216° |
| 2026-04-30 20:41 | 53.56635 | -6.63177 | 5821 ft | 243 kts | 216° |
| 2026-04-30 20:41 | 53.55393 | -6.65041 | 5710 ft | 235 kts | 216° |
| 2026-04-30 20:41 | 53.54111 | -6.66604 | 5558 ft | 221 kts | 195° |
| 2026-04-30 20:41 | 53.52642 | -6.67123 | 5334 ft | 214 kts | 183° |
| 2026-04-30 20:42 | 53.51168 | -6.67361 | 5180 ft | 209 kts | 181° |
| 2026-04-30 20:42 | 53.49739 | -6.67570 | 5036 ft | 203 kts | 181° |
| 2026-04-30 20:42 | 53.47033 | -6.67389 | 4692 ft | 189 kts | 145° |
| 2026-04-30 20:43 | 53.46294 | -6.65594 | 4582 ft | 198 kts | 109° |
| 2026-04-30 20:43 | 53.45998 | -6.63281 | 4331 ft | 205 kts | 109° |
| 2026-04-30 20:43 | 53.45695 | -6.60969 | 4066 ft | 201 kts | 106° |
| 2026-04-30 20:44 | 53.45345 | -6.56509 | 3556 ft | 190 kts | 103° |
| 2026-04-30 20:44 | 53.45217 | -6.54348 | 3298 ft | 182 kts | 103° |
| 2026-04-30 20:44 | 53.44981 | -6.50270 | 2821 ft | 170 kts | 103° |
| 2026-04-30 20:45 | 53.44766 | -6.46520 | 2398 ft | 150 kts | 104° |
| 2026-04-30 20:45 | 53.44668 | -6.44812 | 2196 ft | 146 kts | 104° |
| 2026-04-30 20:45 | 53.44570 | -6.43113 | 2008 ft | 146 kts | 104° |
| 2026-04-30 20:46 | 53.44294 | -6.38278 | 1440 ft | 133 kts | 102° |
| 2026-04-30 20:46 | 53.44205 | -6.36708 | 1269 ft | 139 kts | 102° |
| 2026-04-30 20:47 | 53.44019 | -6.33415 | 878 ft | 143 kts | 97° |
| 2026-04-30 20:47 | 53.43919 | -6.31736 | 696 ft | 148 kts | 96° |
| 2026-04-30 20:48 | 53.43730 | -6.28318 | 265 ft | 145 kts | 94° |
| 2026-04-30 20:48 | 53.43641 | -6.26701 | 211 ft | 129 kts | 95° |
| 2026-04-30 20:48 | 53.43571 | -6.25453 | 209 ft | 86 kts | 95° |
| 2026-04-30 20:48 | 53.43532 | -6.24722 | 215 ft | 28 kts | 96° |
| 2026-04-30 20:49 | 53.43504 | -6.24563 | 214 ft | 9 kts | 142° |
| 2026-04-30 20:49 | 53.43428 | -6.24557 | 211 ft | 11 kts | 185° |
| 2026-04-30 20:49 | 53.43374 | -6.24552 | 215 ft | 8 kts | 154° |
| 2026-04-30 20:50 | 53.43295 | -6.24406 | 214 ft | 9 kts | 182° |
| 2026-04-30 20:50 | 53.43231 | -6.24410 | 210 ft | 9 kts | 182° |
| 2026-04-30 20:50 | 53.43187 | -6.24466 | 210 ft | 9 kts | 268° |
| 2026-04-30 20:50 | 53.43193 | -6.24570 | 210 ft | 9 kts | 275° |
| 2026-04-30 20:51 | 53.43189 | -6.24666 | 210 ft | 8 kts | 248° |
| 2026-04-30 20:51 | 53.43185 | -6.24779 | 213 ft | 2 kts | 274° |
| 2026-04-30 20:51 | 53.43186 | -6.24807 | 220 ft | 2 kts | 274° |
| 2026-04-30 20:52 | 53.43188 | -6.24843 | 213 ft | 5 kts | 276° |
| 2026-04-30 20:52 | 53.43192 | -6.24909 | 210 ft | 6 kts | 275° |
| 2026-04-30 20:52 | 53.43152 | -6.24976 | 213 ft | 6 kts | 185° |
| 2026-04-30 20:53 | 53.43121 | -6.24981 | 220 ft | 2 kts | 185° |
| 2026-04-30 20:53 | 53.43108 | -6.24983 | 217 ft | 0 kts | 185° |